sensor_id;sensor_type;location;lat;lon;timestamp;P1;durP1;ratioP1;P2;durP2;ratioP2
37907;SDS011;23740;51.550;6.846;2023-07-20T00:02:24;4.50;;;2.58;;
37907;SDS011;23740;51.550;6.846;2023-07-20T00:04:52;4.43;;;3.03;;
37907;SDS011;23740;51.550;6.846;2023-07-20T00:07:20;5.10;;;3.33;;
37907;SDS011;23740;51.550;6.846;2023-07-20T00:09:48;6.43;;;3.00;;
37907;SDS011;23740;51.550;6.846;2023-07-20T00:12:17;5.15;;;2.80;;
37907;SDS011;23740;51.550;6.846;2023-07-20T00:14:45;4.22;;;2.67;;
37907;SDS011;23740;51.550;6.846;2023-07-20T00:17:13;4.45;;;3.10;;
37907;SDS011;23740;51.550;6.846;2023-07-20T00:19:41;3.78;;;2.88;;
37907;SDS011;23740;51.550;6.846;2023-07-20T00:22:09;3.38;;;3.08;;
37907;SDS011;23740;51.550;6.846;2023-07-20T00:24:37;5.25;;;2.53;;
37907;SDS011;23740;51.550;6.846;2023-07-20T00:27:05;5.30;;;3.20;;
37907;SDS011;23740;51.550;6.846;2023-07-20T00:29:35;3.60;;;3.30;;
37907;SDS011;23740;51.550;6.846;2023-07-20T00:32:03;3.92;;;3.17;;
37907;SDS011;23740;51.550;6.846;2023-07-20T00:34:32;3.83;;;2.85;;
37907;SDS011;23740;51.550;6.846;2023-07-20T00:37:00;5.22;;;3.05;;
37907;SDS011;23740;51.550;6.846;2023-07-20T00:39:28;4.28;;;2.97;;
37907;SDS011;23740;51.550;6.846;2023-07-20T00:41:56;4.53;;;2.90;;
37907;SDS011;23740;51.550;6.846;2023-07-20T00:44:24;4.38;;;3.40;;
37907;SDS011;23740;51.550;6.846;2023-07-20T00:46:53;3.92;;;3.33;;
37907;SDS011;23740;51.550;6.846;2023-07-20T00:49:21;3.53;;;3.15;;
37907;SDS011;23740;51.550;6.846;2023-07-20T00:51:50;3.58;;;3.13;;
37907;SDS011;23740;51.550;6.846;2023-07-20T00:54:18;5.20;;;3.30;;
37907;SDS011;23740;51.550;6.846;2023-07-20T00:56:46;4.07;;;3.38;;
37907;SDS011;23740;51.550;6.846;2023-07-20T00:59:14;4.95;;;3.65;;
37907;SDS011;23740;51.550;6.846;2023-07-20T01:01:42;4.70;;;3.33;;
37907;SDS011;23740;51.550;6.846;2023-07-20T01:04:11;5.03;;;3.42;;
37907;SDS011;23740;51.550;6.846;2023-07-20T01:06:41;4.90;;;3.72;;
37907;SDS011;23740;51.550;6.846;2023-07-20T01:09:16;4.13;;;3.63;;
37907;SDS011;23740;51.550;6.846;2023-07-20T01:11:49;6.65;;;3.67;;
37907;SDS011;23740;51.550;6.846;2023-07-20T01:14:21;5.60;;;3.65;;
37907;SDS011;23740;51.550;6.846;2023-07-20T01:16:49;6.57;;;4.00;;
37907;SDS011;23740;51.550;6.846;2023-07-20T01:19:20;5.05;;;3.47;;
37907;SDS011;23740;51.550;6.846;2023-07-20T01:21:50;5.07;;;3.60;;
37907;SDS011;23740;51.550;6.846;2023-07-20T01:27:23;6.65;;;3.70;;
37907;SDS011;23740;51.550;6.846;2023-07-20T01:30:03;4.97;;;3.95;;
37907;SDS011;23740;51.550;6.846;2023-07-20T01:32:43;4.60;;;4.18;;
37907;SDS011;23740;51.550;6.846;2023-07-20T01:35:13;5.75;;;3.50;;
37907;SDS011;23740;51.550;6.846;2023-07-20T01:37:42;6.25;;;3.72;;
37907;SDS011;23740;51.550;6.846;2023-07-20T01:40:11;6.15;;;3.58;;
37907;SDS011;23740;51.550;6.846;2023-07-20T01:42:43;5.43;;;3.75;;
37907;SDS011;23740;51.550;6.846;2023-07-20T01:45:11;6.07;;;4.15;;
37907;SDS011;23740;51.550;6.846;2023-07-20T01:47:39;4.85;;;4.13;;
37907;SDS011;23740;51.550;6.846;2023-07-20T01:50:08;4.65;;;3.60;;
37907;SDS011;23740;51.550;6.846;2023-07-20T01:52:36;4.50;;;3.35;;
37907;SDS011;23740;51.550;6.846;2023-07-20T01:55:05;5.93;;;3.38;;
37907;SDS011;23740;51.550;6.846;2023-07-20T01:57:33;6.57;;;4.13;;
37907;SDS011;23740;51.550;6.846;2023-07-20T02:00:01;5.80;;;3.92;;
37907;SDS011;23740;51.550;6.846;2023-07-20T02:02:29;7.72;;;4.05;;
37907;SDS011;23740;51.550;6.846;2023-07-20T02:04:57;6.80;;;4.05;;
37907;SDS011;23740;51.550;6.846;2023-07-20T02:07:27;5.72;;;3.97;;
37907;SDS011;23740;51.550;6.846;2023-07-20T02:09:54;5.68;;;3.83;;
37907;SDS011;23740;51.550;6.846;2023-07-20T02:12:22;5.20;;;3.85;;
37907;SDS011;23740;51.550;6.846;2023-07-20T02:14:50;8.13;;;4.63;;
37907;SDS011;23740;51.550;6.846;2023-07-20T02:17:19;8.38;;;4.50;;
37907;SDS011;23740;51.550;6.846;2023-07-20T02:19:49;6.30;;;4.22;;
37907;SDS011;23740;51.550;6.846;2023-07-20T02:22:18;5.82;;;3.70;;
37907;SDS011;23740;51.550;6.846;2023-07-20T02:24:47;6.93;;;4.43;;
37907;SDS011;23740;51.550;6.846;2023-07-20T02:27:15;7.25;;;4.28;;
37907;SDS011;23740;51.550;6.846;2023-07-20T02:29:43;6.95;;;4.32;;
37907;SDS011;23740;51.550;6.846;2023-07-20T02:32:11;6.40;;;4.20;;
37907;SDS011;23740;51.550;6.846;2023-07-20T02:34:39;8.07;;;4.55;;
37907;SDS011;23740;51.550;6.846;2023-07-20T02:37:07;5.85;;;4.53;;
37907;SDS011;23740;51.550;6.846;2023-07-20T02:39:37;7.95;;;4.55;;
37907;SDS011;23740;51.550;6.846;2023-07-20T02:42:07;8.50;;;4.95;;
37907;SDS011;23740;51.550;6.846;2023-07-20T02:44:35;8.48;;;4.88;;
37907;SDS011;23740;51.550;6.846;2023-07-20T02:47:06;8.23;;;5.30;;
37907;SDS011;23740;51.550;6.846;2023-07-20T02:49:34;7.15;;;4.65;;
37907;SDS011;23740;51.550;6.846;2023-07-20T02:52:03;9.63;;;5.18;;
37907;SDS011;23740;51.550;6.846;2023-07-20T02:54:31;10.45;;;5.70;;
37907;SDS011;23740;51.550;6.846;2023-07-20T02:56:59;11.48;;;5.40;;
37907;SDS011;23740;51.550;6.846;2023-07-20T02:59:32;8.65;;;5.70;;
37907;SDS011;23740;51.550;6.846;2023-07-20T03:02:03;9.45;;;5.43;;
37907;SDS011;23740;51.550;6.846;2023-07-20T03:04:31;9.40;;;5.68;;
37907;SDS011;23740;51.550;6.846;2023-07-20T03:06:58;8.80;;;5.10;;
37907;SDS011;23740;51.550;6.846;2023-07-20T03:09:26;10.57;;;5.80;;
37907;SDS011;23740;51.550;6.846;2023-07-20T03:11:54;10.05;;;5.78;;
37907;SDS011;23740;51.550;6.846;2023-07-20T03:14:22;10.38;;;6.25;;
37907;SDS011;23740;51.550;6.846;2023-07-20T03:16:51;9.70;;;5.32;;
37907;SDS011;23740;51.550;6.846;2023-07-20T03:19:19;11.75;;;6.32;;
37907;SDS011;23740;51.550;6.846;2023-07-20T03:21:47;9.45;;;5.70;;
37907;SDS011;23740;51.550;6.846;2023-07-20T03:24:15;9.48;;;5.90;;
37907;SDS011;23740;51.550;6.846;2023-07-20T03:26:43;8.80;;;6.00;;
37907;SDS011;23740;51.550;6.846;2023-07-20T03:29:11;9.65;;;5.90;;
37907;SDS011;23740;51.550;6.846;2023-07-20T03:31:39;9.65;;;5.78;;
37907;SDS011;23740;51.550;6.846;2023-07-20T03:34:08;10.23;;;5.88;;
37907;SDS011;23740;51.550;6.846;2023-07-20T03:36:39;9.57;;;6.25;;
37907;SDS011;23740;51.550;6.846;2023-07-20T03:39:07;8.55;;;5.75;;
37907;SDS011;23740;51.550;6.846;2023-07-20T03:41:35;11.55;;;6.90;;
37907;SDS011;23740;51.550;6.846;2023-07-20T03:44:03;11.68;;;8.15;;
37907;SDS011;23740;51.550;6.846;2023-07-20T03:46:31;11.82;;;7.93;;
37907;SDS011;23740;51.550;6.846;2023-07-20T03:49:00;11.45;;;7.82;;
37907;SDS011;23740;51.550;6.846;2023-07-20T03:51:29;11.27;;;7.38;;
37907;SDS011;23740;51.550;6.846;2023-07-20T03:53:57;11.95;;;7.43;;
37907;SDS011;23740;51.550;6.846;2023-07-20T03:56:26;12.40;;;7.53;;
37907;SDS011;23740;51.550;6.846;2023-07-20T03:58:53;11.32;;;7.75;;
37907;SDS011;23740;51.550;6.846;2023-07-20T04:01:21;10.65;;;6.60;;
37907;SDS011;23740;51.550;6.846;2023-07-20T04:03:49;12.57;;;7.72;;
37907;SDS011;23740;51.550;6.846;2023-07-20T04:06:17;11.23;;;7.18;;
37907;SDS011;23740;51.550;6.846;2023-07-20T04:08:46;11.38;;;7.50;;
37907;SDS011;23740;51.550;6.846;2023-07-20T04:11:14;11.60;;;7.68;;
37907;SDS011;23740;51.550;6.846;2023-07-20T04:13:42;10.73;;;7.45;;
37907;SDS011;23740;51.550;6.846;2023-07-20T04:16:10;11.55;;;6.75;;
37907;SDS011;23740;51.550;6.846;2023-07-20T04:18:37;10.20;;;7.13;;
37907;SDS011;23740;51.550;6.846;2023-07-20T04:21:08;10.02;;;6.75;;
37907;SDS011;23740;51.550;6.846;2023-07-20T04:23:36;9.77;;;7.07;;
37907;SDS011;23740;51.550;6.846;2023-07-20T04:26:05;10.90;;;7.07;;
37907;SDS011;23740;51.550;6.846;2023-07-20T04:28:33;10.10;;;6.35;;
37907;SDS011;23740;51.550;6.846;2023-07-20T04:31:10;9.50;;;8.20;;
37907;SDS011;23740;51.550;6.846;2023-07-20T04:33:38;13.07;;;7.85;;
37907;SDS011;23740;51.550;6.846;2023-07-20T04:36:07;11.13;;;6.68;;
37907;SDS011;23740;51.550;6.846;2023-07-20T04:38:35;9.50;;;7.30;;
37907;SDS011;23740;51.550;6.846;2023-07-20T04:41:03;9.63;;;6.13;;
37907;SDS011;23740;51.550;6.846;2023-07-20T04:43:32;10.30;;;6.40;;
37907;SDS011;23740;51.550;6.846;2023-07-20T04:46:00;9.38;;;6.30;;
37907;SDS011;23740;51.550;6.846;2023-07-20T04:48:28;8.73;;;6.57;;
37907;SDS011;23740;51.550;6.846;2023-07-20T04:50:55;8.40;;;6.00;;
37907;SDS011;23740;51.550;6.846;2023-07-20T04:53:23;8.63;;;6.82;;
37907;SDS011;23740;51.550;6.846;2023-07-20T04:55:51;7.28;;;6.05;;
37907;SDS011;23740;51.550;6.846;2023-07-20T04:58:20;8.77;;;6.18;;
37907;SDS011;23740;51.550;6.846;2023-07-20T05:00:50;8.70;;;6.13;;
37907;SDS011;23740;51.550;6.846;2023-07-20T05:03:18;5.97;;;5.28;;
37907;SDS011;23740;51.550;6.846;2023-07-20T05:05:46;7.13;;;5.53;;
37907;SDS011;23740;51.550;6.846;2023-07-20T05:08:15;8.07;;;6.40;;
37907;SDS011;23740;51.550;6.846;2023-07-20T05:10:43;7.35;;;5.55;;
37907;SDS011;23740;51.550;6.846;2023-07-20T05:13:11;8.30;;;5.32;;
37907;SDS011;23740;51.550;6.846;2023-07-20T05:15:39;5.95;;;5.07;;
37907;SDS011;23740;51.550;6.846;2023-07-20T05:18:08;5.82;;;4.72;;
37907;SDS011;23740;51.550;6.846;2023-07-20T05:20:36;6.45;;;4.75;;
37907;SDS011;23740;51.550;6.846;2023-07-20T05:23:04;5.55;;;4.45;;
37907;SDS011;23740;51.550;6.846;2023-07-20T05:25:32;5.13;;;4.63;;
37907;SDS011;23740;51.550;6.846;2023-07-20T05:28:00;5.57;;;4.07;;
37907;SDS011;23740;51.550;6.846;2023-07-20T05:30:27;5.45;;;4.50;;
37907;SDS011;23740;51.550;6.846;2023-07-20T05:32:56;5.88;;;4.53;;
37907;SDS011;23740;51.550;6.846;2023-07-20T05:35:26;4.90;;;4.35;;
37907;SDS011;23740;51.550;6.846;2023-07-20T05:37:53;6.07;;;4.18;;
37907;SDS011;23740;51.550;6.846;2023-07-20T05:40:21;5.10;;;4.22;;
37907;SDS011;23740;51.550;6.846;2023-07-20T05:42:49;6.60;;;4.32;;
37907;SDS011;23740;51.550;6.846;2023-07-20T05:45:18;4.45;;;3.75;;
37907;SDS011;23740;51.550;6.846;2023-07-20T05:47:46;5.00;;;3.78;;
37907;SDS011;23740;51.550;6.846;2023-07-20T05:50:14;4.47;;;3.70;;
37907;SDS011;23740;51.550;6.846;2023-07-20T05:52:44;5.05;;;4.50;;
37907;SDS011;23740;51.550;6.846;2023-07-20T05:55:11;5.63;;;4.88;;
37907;SDS011;23740;51.550;6.846;2023-07-20T05:57:39;3.45;;;3.15;;
37907;SDS011;23740;51.550;6.846;2023-07-20T06:00:09;4.13;;;3.45;;
37907;SDS011;23740;51.550;6.846;2023-07-20T06:02:40;4.38;;;3.85;;
37907;SDS011;23740;51.550;6.846;2023-07-20T06:05:09;3.08;;;2.75;;
37907;SDS011;23740;51.550;6.846;2023-07-20T06:07:37;3.28;;;2.67;;
37907;SDS011;23740;51.550;6.846;2023-07-20T06:10:06;2.40;;;2.20;;
37907;SDS011;23740;51.550;6.846;2023-07-20T06:12:34;4.18;;;2.90;;
37907;SDS011;23740;51.550;6.846;2023-07-20T06:15:03;2.85;;;2.65;;
37907;SDS011;23740;51.550;6.846;2023-07-20T06:17:32;3.22;;;2.80;;
37907;SDS011;23740;51.550;6.846;2023-07-20T06:19:59;3.55;;;2.95;;
37907;SDS011;23740;51.550;6.846;2023-07-20T06:22:28;3.03;;;2.28;;
37907;SDS011;23740;51.550;6.846;2023-07-20T06:24:55;3.00;;;2.70;;
37907;SDS011;23740;51.550;6.846;2023-07-20T06:27:25;2.67;;;2.33;;
37907;SDS011;23740;51.550;6.846;2023-07-20T06:29:55;2.80;;;2.20;;
37907;SDS011;23740;51.550;6.846;2023-07-20T06:32:22;2.72;;;2.53;;
37907;SDS011;23740;51.550;6.846;2023-07-20T06:34:50;3.08;;;2.42;;
37907;SDS011;23740;51.550;6.846;2023-07-20T06:37:18;2.83;;;2.50;;
37907;SDS011;23740;51.550;6.846;2023-07-20T06:39:46;2.63;;;2.22;;
37907;SDS011;23740;51.550;6.846;2023-07-20T06:42:16;2.25;;;1.73;;
37907;SDS011;23740;51.550;6.846;2023-07-20T06:44:46;1.70;;;1.60;;
37907;SDS011;23740;51.550;6.846;2023-07-20T06:47:13;2.25;;;2.05;;
37907;SDS011;23740;51.550;6.846;2023-07-20T06:49:41;3.33;;;1.77;;
37907;SDS011;23740;51.550;6.846;2023-07-20T06:52:09;1.75;;;1.65;;
37907;SDS011;23740;51.550;6.846;2023-07-20T06:54:37;2.38;;;2.03;;
37907;SDS011;23740;51.550;6.846;2023-07-20T06:57:10;3.20;;;2.13;;
37907;SDS011;23740;51.550;6.846;2023-07-20T06:59:41;2.17;;;1.98;;
37907;SDS011;23740;51.550;6.846;2023-07-20T07:02:10;2.30;;;1.88;;
37907;SDS011;23740;51.550;6.846;2023-07-20T07:04:40;1.85;;;1.73;;
37907;SDS011;23740;51.550;6.846;2023-07-20T07:07:08;2.05;;;1.92;;
37907;SDS011;23740;51.550;6.846;2023-07-20T07:09:36;2.88;;;1.50;;
37907;SDS011;23740;51.550;6.846;2023-07-20T07:12:05;1.73;;;1.63;;
37907;SDS011;23740;51.550;6.846;2023-07-20T07:14:33;1.50;;;1.42;;
37907;SDS011;23740;51.550;6.846;2023-07-20T07:17:01;1.50;;;1.40;;
37907;SDS011;23740;51.550;6.846;2023-07-20T07:19:32;1.83;;;1.70;;
37907;SDS011;23740;51.550;6.846;2023-07-20T07:22:00;2.00;;;1.52;;
37907;SDS011;23740;51.550;6.846;2023-07-20T07:24:33;1.58;;;1.40;;
37907;SDS011;23740;51.550;6.846;2023-07-20T07:27:01;1.58;;;1.48;;
37907;SDS011;23740;51.550;6.846;2023-07-20T07:29:30;1.75;;;1.42;;
37907;SDS011;23740;51.550;6.846;2023-07-20T07:31:57;1.70;;;1.58;;
37907;SDS011;23740;51.550;6.846;2023-07-20T07:34:25;1.45;;;1.35;;
37907;SDS011;23740;51.550;6.846;2023-07-20T07:36:55;1.50;;;1.40;;
37907;SDS011;23740;51.550;6.846;2023-07-20T07:39:22;1.48;;;1.38;;
37907;SDS011;23740;51.550;6.846;2023-07-20T07:41:53;1.80;;;1.58;;
37907;SDS011;23740;51.550;6.846;2023-07-20T07:44:21;1.63;;;1.52;;
37907;SDS011;23740;51.550;6.846;2023-07-20T07:46:49;2.08;;;1.98;;
37907;SDS011;23740;51.550;6.846;2023-07-20T07:49:17;1.50;;;1.40;;
37907;SDS011;23740;51.550;6.846;2023-07-20T07:51:45;1.73;;;1.42;;
37907;SDS011;23740;51.550;6.846;2023-07-20T07:54:14;1.50;;;1.40;;
37907;SDS011;23740;51.550;6.846;2023-07-20T07:56:42;2.00;;;1.90;;
37907;SDS011;23740;51.550;6.846;2023-07-20T07:59:10;1.58;;;1.48;;
37907;SDS011;23740;51.550;6.846;2023-07-20T08:01:38;1.52;;;1.42;;
37907;SDS011;23740;51.550;6.846;2023-07-20T08:04:06;3.72;;;3.42;;
37907;SDS011;23740;51.550;6.846;2023-07-20T08:06:34;2.13;;;2.03;;
37907;SDS011;23740;51.550;6.846;2023-07-20T08:09:02;1.48;;;1.38;;
37907;SDS011;23740;51.550;6.846;2023-07-20T08:11:32;1.58;;;1.48;;
37907;SDS011;23740;51.550;6.846;2023-07-20T08:14:00;2.25;;;2.05;;
37907;SDS011;23740;51.550;6.846;2023-07-20T08:16:28;1.30;;;1.20;;
37907;SDS011;23740;51.550;6.846;2023-07-20T08:18:56;1.42;;;1.33;;
37907;SDS011;23740;51.550;6.846;2023-07-20T08:21:24;1.75;;;1.65;;
37907;SDS011;23740;51.550;6.846;2023-07-20T08:23:52;1.00;;;1.00;;
37907;SDS011;23740;51.550;6.846;2023-07-20T08:26:20;1.90;;;1.80;;
37907;SDS011;23740;51.550;6.846;2023-07-20T08:28:50;1.60;;;1.50;;
37907;SDS011;23740;51.550;6.846;2023-07-20T08:31:18;2.05;;;1.95;;
37907;SDS011;23740;51.550;6.846;2023-07-20T08:33:46;1.65;;;1.63;;
37907;SDS011;23740;51.550;6.846;2023-07-20T08:36:14;1.27;;;1.27;;
37907;SDS011;23740;51.550;6.846;2023-07-20T08:38:42;1.63;;;1.52;;
37907;SDS011;23740;51.550;6.846;2023-07-20T08:41:10;1.98;;;1.95;;
37907;SDS011;23740;51.550;6.846;2023-07-20T08:43:38;1.50;;;1.50;;
37907;SDS011;23740;51.550;6.846;2023-07-20T08:46:09;2.35;;;2.25;;
37907;SDS011;23740;51.550;6.846;2023-07-20T08:48:38;1.80;;;1.80;;
37907;SDS011;23740;51.550;6.846;2023-07-20T08:51:07;1.85;;;1.85;;
37907;SDS011;23740;51.550;6.846;2023-07-20T08:53:35;1.58;;;1.27;;
37907;SDS011;23740;51.550;6.846;2023-07-20T08:56:03;1.55;;;1.45;;
37907;SDS011;23740;51.550;6.846;2023-07-20T08:58:31;1.45;;;1.35;;
37907;SDS011;23740;51.550;6.846;2023-07-20T09:01:01;1.15;;;1.15;;
37907;SDS011;23740;51.550;6.846;2023-07-20T09:03:30;1.35;;;0.88;;
37907;SDS011;23740;51.550;6.846;2023-07-20T09:05:59;1.20;;;0.88;;
37907;SDS011;23740;51.550;6.846;2023-07-20T09:08:26;0.98;;;0.85;;
37907;SDS011;23740;51.550;6.846;2023-07-20T09:10:54;1.35;;;1.35;;
37907;SDS011;23740;51.550;6.846;2023-07-20T09:13:22;0.98;;;0.98;;
37907;SDS011;23740;51.550;6.846;2023-07-20T09:15:54;1.40;;;1.40;;
37907;SDS011;23740;51.550;6.846;2023-07-20T09:18:25;0.93;;;0.93;;
37907;SDS011;23740;51.550;6.846;2023-07-20T09:20:59;1.27;;;1.17;;
37907;SDS011;23740;51.550;6.846;2023-07-20T09:23:29;1.35;;;0.88;;
37907;SDS011;23740;51.550;6.846;2023-07-20T09:25:58;1.48;;;1.42;;
37907;SDS011;23740;51.550;6.846;2023-07-20T09:28:26;1.23;;;1.20;;
37907;SDS011;23740;51.550;6.846;2023-07-20T09:30:54;1.05;;;0.90;;
37907;SDS011;23740;51.550;6.846;2023-07-20T09:33:24;1.08;;;1.08;;
37907;SDS011;23740;51.550;6.846;2023-07-20T09:35:53;0.90;;;0.90;;
37907;SDS011;23740;51.550;6.846;2023-07-20T09:38:25;1.20;;;1.20;;
37907;SDS011;23740;51.550;6.846;2023-07-20T09:40:54;1.42;;;1.02;;
37907;SDS011;23740;51.550;6.846;2023-07-20T09:43:26;0.90;;;0.90;;
37907;SDS011;23740;51.550;6.846;2023-07-20T09:45:57;1.00;;;0.90;;
37907;SDS011;23740;51.550;6.846;2023-07-20T09:48:25;1.77;;;1.65;;
37907;SDS011;23740;51.550;6.846;2023-07-20T09:50:56;0.63;;;0.63;;
37907;SDS011;23740;51.550;6.846;2023-07-20T09:53:25;0.70;;;0.70;;
37907;SDS011;23740;51.550;6.846;2023-07-20T09:55:55;0.85;;;0.85;;
37907;SDS011;23740;51.550;6.846;2023-07-20T09:58:23;0.88;;;0.88;;
37907;SDS011;23740;51.550;6.846;2023-07-20T10:00:52;1.08;;;1.08;;
37907;SDS011;23740;51.550;6.846;2023-07-20T10:03:20;0.90;;;0.90;;
37907;SDS011;23740;51.550;6.846;2023-07-20T10:05:51;1.08;;;0.90;;
37907;SDS011;23740;51.550;6.846;2023-07-20T10:08:20;0.95;;;0.95;;
37907;SDS011;23740;51.550;6.846;2023-07-20T10:10:55;1.48;;;1.38;;
37907;SDS011;23740;51.550;6.846;2023-07-20T10:13:25;1.17;;;1.17;;
37907;SDS011;23740;51.550;6.846;2023-07-20T10:15:54;1.05;;;0.93;;
37907;SDS011;23740;51.550;6.846;2023-07-20T10:18:30;0.88;;;0.85;;
37907;SDS011;23740;51.550;6.846;2023-07-20T10:20:59;1.30;;;0.80;;
37907;SDS011;23740;51.550;6.846;2023-07-20T10:23:31;0.85;;;0.85;;
37907;SDS011;23740;51.550;6.846;2023-07-20T10:26:01;1.52;;;1.17;;
37907;SDS011;23740;51.550;6.846;2023-07-20T10:28:29;1.60;;;1.17;;
37907;SDS011;23740;51.550;6.846;2023-07-20T10:30:57;2.30;;;2.20;;
37907;SDS011;23740;51.550;6.846;2023-07-20T10:33:25;1.65;;;1.60;;
37907;SDS011;23740;51.550;6.846;2023-07-20T10:35:53;1.85;;;1.10;;
37907;SDS011;23740;51.550;6.846;2023-07-20T10:38:38;0.88;;;0.82;;
37907;SDS011;23740;51.550;6.846;2023-07-20T10:41:17;1.02;;;0.85;;
37907;SDS011;23740;51.550;6.846;2023-07-20T10:43:46;1.48;;;1.38;;
37907;SDS011;23740;51.550;6.846;2023-07-20T10:46:15;1.20;;;1.20;;
37907;SDS011;23740;51.550;6.846;2023-07-20T10:49:01;1.20;;;1.20;;
37907;SDS011;23740;51.550;6.846;2023-07-20T10:51:30;1.05;;;0.82;;
37907;SDS011;23740;51.550;6.846;2023-07-20T10:54:07;0.90;;;0.90;;
37907;SDS011;23740;51.550;6.846;2023-07-20T10:56:37;2.40;;;1.25;;
37907;SDS011;23740;51.550;6.846;2023-07-20T10:59:17;0.90;;;0.90;;
37907;SDS011;23740;51.550;6.846;2023-07-20T11:01:46;0.80;;;0.80;;
37907;SDS011;23740;51.550;6.846;2023-07-20T11:04:16;0.85;;;0.85;;
37907;SDS011;23740;51.550;6.846;2023-07-20T11:06:45;0.90;;;0.90;;
37907;SDS011;23740;51.550;6.846;2023-07-20T11:09:13;0.68;;;0.60;;
37907;SDS011;23740;51.550;6.846;2023-07-20T11:11:44;1.42;;;1.33;;
37907;SDS011;23740;51.550;6.846;2023-07-20T11:14:20;1.42;;;1.23;;
37907;SDS011;23740;51.550;6.846;2023-07-20T11:16:49;1.33;;;0.98;;
37907;SDS011;23740;51.550;6.846;2023-07-20T11:19:18;1.42;;;0.73;;
37907;SDS011;23740;51.550;6.846;2023-07-20T11:21:50;0.88;;;0.88;;
37907;SDS011;23740;51.550;6.846;2023-07-20T11:24:29;1.45;;;1.30;;
37907;SDS011;23740;51.550;6.846;2023-07-20T11:26:58;1.48;;;1.38;;
37907;SDS011;23740;51.550;6.846;2023-07-20T11:29:26;1.33;;;1.23;;
37907;SDS011;23740;51.550;6.846;2023-07-20T11:34:26;0.93;;;0.93;;
37907;SDS011;23740;51.550;6.846;2023-07-20T11:36:54;1.23;;;1.00;;
37907;SDS011;23740;51.550;6.846;2023-07-20T11:39:25;0.93;;;0.93;;
37907;SDS011;23740;51.550;6.846;2023-07-20T11:41:53;0.75;;;0.73;;
37907;SDS011;23740;51.550;6.846;2023-07-20T11:44:23;1.90;;;1.00;;
37907;SDS011;23740;51.550;6.846;2023-07-20T11:47:00;1.00;;;0.90;;
37907;SDS011;23740;51.550;6.846;2023-07-20T11:49:30;0.73;;;0.73;;
37907;SDS011;23740;51.550;6.846;2023-07-20T11:52:02;0.73;;;0.73;;
37907;SDS011;23740;51.550;6.846;2023-07-20T11:54:31;1.10;;;1.10;;
37907;SDS011;23740;51.550;6.846;2023-07-20T11:57:00;0.82;;;0.82;;
37907;SDS011;23740;51.550;6.846;2023-07-20T11:59:29;1.20;;;0.75;;
37907;SDS011;23740;51.550;6.846;2023-07-20T12:01:58;0.80;;;0.80;;
37907;SDS011;23740;51.550;6.846;2023-07-20T12:04:26;0.80;;;0.80;;
37907;SDS011;23740;51.550;6.846;2023-07-20T12:06:54;1.50;;;1.05;;
37907;SDS011;23740;51.550;6.846;2023-07-20T12:09:22;0.85;;;0.80;;
37907;SDS011;23740;51.550;6.846;2023-07-20T12:11:55;0.82;;;0.82;;
37907;SDS011;23740;51.550;6.846;2023-07-20T12:14:24;0.75;;;0.75;;
37907;SDS011;23740;51.550;6.846;2023-07-20T12:16:54;0.63;;;0.63;;
37907;SDS011;23740;51.550;6.846;2023-07-20T12:19:24;0.90;;;0.90;;
37907;SDS011;23740;51.550;6.846;2023-07-20T12:21:56;1.08;;;1.08;;
37907;SDS011;23740;51.550;6.846;2023-07-20T12:24:25;1.02;;;1.02;;
37907;SDS011;23740;51.550;6.846;2023-07-20T12:26:55;1.25;;;1.15;;
37907;SDS011;23740;51.550;6.846;2023-07-20T12:29:23;1.40;;;1.08;;
37907;SDS011;23740;51.550;6.846;2023-07-20T12:31:54;1.05;;;0.93;;
37907;SDS011;23740;51.550;6.846;2023-07-20T12:34:21;0.98;;;0.73;;
37907;SDS011;23740;51.550;6.846;2023-07-20T12:36:49;1.23;;;0.90;;
37907;SDS011;23740;51.550;6.846;2023-07-20T12:39:17;1.40;;;1.00;;
37907;SDS011;23740;51.550;6.846;2023-07-20T12:41:45;0.75;;;0.75;;
37907;SDS011;23740;51.550;6.846;2023-07-20T12:44:12;0.85;;;0.85;;
37907;SDS011;23740;51.550;6.846;2023-07-20T12:46:41;1.05;;;0.73;;
37907;SDS011;23740;51.550;6.846;2023-07-20T12:49:10;1.20;;;1.10;;
37907;SDS011;23740;51.550;6.846;2023-07-20T12:51:38;0.93;;;0.93;;
37907;SDS011;23740;51.550;6.846;2023-07-20T12:54:05;1.95;;;1.05;;
37907;SDS011;23740;51.550;6.846;2023-07-20T12:56:33;1.30;;;0.93;;
37907;SDS011;23740;51.550;6.846;2023-07-20T12:59:04;0.82;;;0.82;;
37907;SDS011;23740;51.550;6.846;2023-07-20T13:01:32;1.23;;;0.68;;
37907;SDS011;23740;51.550;6.846;2023-07-20T13:04:00;0.80;;;0.80;;
37907;SDS011;23740;51.550;6.846;2023-07-20T13:06:32;0.98;;;0.80;;
37907;SDS011;23740;51.550;6.846;2023-07-20T13:09:02;0.75;;;0.70;;
37907;SDS011;23740;51.550;6.846;2023-07-20T13:11:31;0.73;;;0.73;;
37907;SDS011;23740;51.550;6.846;2023-07-20T13:13:59;1.30;;;1.13;;
37907;SDS011;23740;51.550;6.846;2023-07-20T13:16:29;0.75;;;0.75;;
37907;SDS011;23740;51.550;6.846;2023-07-20T13:18:57;1.45;;;1.35;;
37907;SDS011;23740;51.550;6.846;2023-07-20T13:21:25;0.98;;;0.65;;
37907;SDS011;23740;51.550;6.846;2023-07-20T13:23:54;0.65;;;0.65;;
37907;SDS011;23740;51.550;6.846;2023-07-20T13:26:22;1.08;;;0.98;;
37907;SDS011;23740;51.550;6.846;2023-07-20T13:28:50;1.13;;;1.10;;
37907;SDS011;23740;51.550;6.846;2023-07-20T13:31:18;1.13;;;1.13;;
37907;SDS011;23740;51.550;6.846;2023-07-20T13:33:50;1.35;;;1.25;;
37907;SDS011;23740;51.550;6.846;2023-07-20T13:36:25;1.02;;;1.02;;
37907;SDS011;23740;51.550;6.846;2023-07-20T13:38:57;0.88;;;0.88;;
37907;SDS011;23740;51.550;6.846;2023-07-20T13:41:25;1.10;;;1.02;;
37907;SDS011;23740;51.550;6.846;2023-07-20T13:43:55;1.02;;;1.02;;
37907;SDS011;23740;51.550;6.846;2023-07-20T13:46:23;1.15;;;1.15;;
37907;SDS011;23740;51.550;6.846;2023-07-20T13:48:54;1.35;;;1.20;;
37907;SDS011;23740;51.550;6.846;2023-07-20T13:51:24;1.30;;;1.20;;
37907;SDS011;23740;51.550;6.846;2023-07-20T13:53:53;1.63;;;0.90;;
37907;SDS011;23740;51.550;6.846;2023-07-20T13:56:23;1.17;;;0.93;;
37907;SDS011;23740;51.550;6.846;2023-07-20T13:58:51;1.60;;;0.82;;
37907;SDS011;23740;51.550;6.846;2023-07-20T14:01:19;0.98;;;0.82;;
37907;SDS011;23740;51.550;6.846;2023-07-20T14:03:52;1.90;;;1.08;;
37907;SDS011;23740;51.550;6.846;2023-07-20T14:06:20;1.20;;;0.82;;
37907;SDS011;23740;51.550;6.846;2023-07-20T14:08:51;1.05;;;0.95;;
37907;SDS011;23740;51.550;6.846;2023-07-20T14:11:19;0.98;;;0.98;;
37907;SDS011;23740;51.550;6.846;2023-07-20T14:13:52;1.98;;;1.83;;
37907;SDS011;23740;51.550;6.846;2023-07-20T14:16:20;1.00;;;1.00;;
37907;SDS011;23740;51.550;6.846;2023-07-20T14:18:49;1.05;;;1.05;;
37907;SDS011;23740;51.550;6.846;2023-07-20T14:21:17;1.02;;;0.88;;
37907;SDS011;23740;51.550;6.846;2023-07-20T14:23:46;0.93;;;0.90;;
37907;SDS011;23740;51.550;6.846;2023-07-20T14:26:19;1.23;;;0.82;;
37907;SDS011;23740;51.550;6.846;2023-07-20T14:28:48;1.05;;;0.95;;
37907;SDS011;23740;51.550;6.846;2023-07-20T14:31:18;1.25;;;1.23;;
37907;SDS011;23740;51.550;6.846;2023-07-20T14:33:46;1.02;;;1.02;;
37907;SDS011;23740;51.550;6.846;2023-07-20T14:36:14;1.08;;;0.98;;
37907;SDS011;23740;51.550;6.846;2023-07-20T14:38:44;1.02;;;0.93;;
37907;SDS011;23740;51.550;6.846;2023-07-20T14:41:11;0.85;;;0.85;;
37907;SDS011;23740;51.550;6.846;2023-07-20T14:43:39;1.52;;;1.23;;
37907;SDS011;23740;51.550;6.846;2023-07-20T14:46:07;1.02;;;1.02;;
37907;SDS011;23740;51.550;6.846;2023-07-20T14:48:36;1.00;;;1.00;;
37907;SDS011;23740;51.550;6.846;2023-07-20T14:51:04;1.65;;;1.55;;
37907;SDS011;23740;51.550;6.846;2023-07-20T14:53:32;0.82;;;0.82;;
37907;SDS011;23740;51.550;6.846;2023-07-20T14:56:02;1.15;;;1.13;;
37907;SDS011;23740;51.550;6.846;2023-07-20T14:58:31;2.25;;;1.98;;
37907;SDS011;23740;51.550;6.846;2023-07-20T15:01:01;1.10;;;1.10;;
37907;SDS011;23740;51.550;6.846;2023-07-20T15:03:29;1.77;;;1.23;;